sensor_id;sensor_type;location;lat;lon;timestamp;P1;durP1;ratioP1;P2;durP2;ratioP2
253;SDS011;590;48.772;8.846;2023-06-10T00:00:03;10.60;;;10.00;;
253;SDS011;590;48.772;8.846;2023-06-10T00:02:33;9.57;;;9.07;;
253;SDS011;590;48.772;8.846;2023-06-10T00:05:02;9.70;;;9.20;;
253;SDS011;590;48.772;8.846;2023-06-10T00:07:30;9.70;;;9.20;;
253;SDS011;590;48.772;8.846;2023-06-10T00:09:59;9.90;;;9.40;;
253;SDS011;590;48.772;8.846;2023-06-10T00:12:31;9.70;;;9.20;;
253;SDS011;590;48.772;8.846;2023-06-10T00:15:03;10.60;;;10.00;;
253;SDS011;590;48.772;8.846;2023-06-10T00:17:32;10.27;;;9.77;;
253;SDS011;590;48.772;8.846;2023-06-10T00:20:00;10.77;;;10.17;;
253;SDS011;590;48.772;8.846;2023-06-10T00:22:31;9.80;;;9.30;;
253;SDS011;590;48.772;8.846;2023-06-10T00:25:00;9.33;;;8.83;;
253;SDS011;590;48.772;8.846;2023-06-10T00:27:30;10.00;;;9.50;;
253;SDS011;590;48.772;8.846;2023-06-10T00:30:02;12.47;;;11.87;;
253;SDS011;590;48.772;8.846;2023-06-10T00:32:33;11.10;;;10.50;;
253;SDS011;590;48.772;8.846;2023-06-10T00:35:02;8.90;;;8.40;;
253;SDS011;590;48.772;8.846;2023-06-10T00:37:30;9.87;;;9.37;;
253;SDS011;590;48.772;8.846;2023-06-10T00:39:58;9.43;;;8.93;;
253;SDS011;590;48.772;8.846;2023-06-10T00:42:28;10.23;;;9.73;;
253;SDS011;590;48.772;8.846;2023-06-10T00:44:56;10.40;;;9.90;;
253;SDS011;590;48.772;8.846;2023-06-10T00:47:25;9.20;;;8.70;;
253;SDS011;590;48.772;8.846;2023-06-10T00:49:53;10.07;;;9.57;;
253;SDS011;590;48.772;8.846;2023-06-10T00:52:22;10.03;;;9.53;;
253;SDS011;590;48.772;8.846;2023-06-10T00:54:53;9.97;;;9.47;;
253;SDS011;590;48.772;8.846;2023-06-10T00:57:23;9.97;;;9.47;;
253;SDS011;590;48.772;8.846;2023-06-10T00:59:51;10.83;;;10.23;;
253;SDS011;590;48.772;8.846;2023-06-10T01:02:19;11.03;;;10.43;;
253;SDS011;590;48.772;8.846;2023-06-10T01:04:48;11.70;;;11.10;;
253;SDS011;590;48.772;8.846;2023-06-10T01:07:17;10.40;;;9.90;;
253;SDS011;590;48.772;8.846;2023-06-10T01:09:54;11.00;;;10.40;;
253;SDS011;590;48.772;8.846;2023-06-10T01:12:31;11.00;;;10.40;;
253;SDS011;590;48.772;8.846;2023-06-10T01:15:05;10.10;;;9.60;;
253;SDS011;590;48.772;8.846;2023-06-10T01:17:36;10.10;;;9.60;;
253;SDS011;590;48.772;8.846;2023-06-10T01:20:18;9.50;;;9.00;;
253;SDS011;590;48.772;8.846;2023-06-10T01:22:48;10.30;;;9.80;;
253;SDS011;590;48.772;8.846;2023-06-10T01:25:16;11.33;;;10.73;;
253;SDS011;590;48.772;8.846;2023-06-10T01:27:45;11.50;;;10.90;;
253;SDS011;590;48.772;8.846;2023-06-10T01:30:17;11.67;;;11.07;;
253;SDS011;590;48.772;8.846;2023-06-10T01:32:50;12.10;;;11.50;;
253;SDS011;590;48.772;8.846;2023-06-10T01:35:19;11.33;;;10.73;;
253;SDS011;590;48.772;8.846;2023-06-10T01:37:53;10.10;;;9.60;;
253;SDS011;590;48.772;8.846;2023-06-10T01:40:24;10.87;;;10.27;;
253;SDS011;590;48.772;8.846;2023-06-10T01:42:53;11.43;;;10.83;;
253;SDS011;590;48.772;8.846;2023-06-10T01:45:21;14.03;;;13.33;;
253;SDS011;590;48.772;8.846;2023-06-10T01:47:49;10.60;;;10.00;;
253;SDS011;590;48.772;8.846;2023-06-10T01:50:17;10.67;;;10.07;;
253;SDS011;590;48.772;8.846;2023-06-10T01:52:45;10.33;;;9.83;;
253;SDS011;590;48.772;8.846;2023-06-10T01:55:14;11.43;;;10.83;;
253;SDS011;590;48.772;8.846;2023-06-10T01:57:42;9.50;;;9.00;;
253;SDS011;590;48.772;8.846;2023-06-10T02:00:11;11.57;;;10.97;;
253;SDS011;590;48.772;8.846;2023-06-10T02:02:40;11.50;;;10.90;;
253;SDS011;590;48.772;8.846;2023-06-10T02:05:08;10.93;;;10.33;;
253;SDS011;590;48.772;8.846;2023-06-10T02:07:36;12.10;;;11.50;;
253;SDS011;590;48.772;8.846;2023-06-10T02:10:05;10.90;;;10.30;;
253;SDS011;590;48.772;8.846;2023-06-10T02:12:36;10.27;;;9.77;;
253;SDS011;590;48.772;8.846;2023-06-10T02:15:04;11.13;;;10.53;;
253;SDS011;590;48.772;8.846;2023-06-10T02:17:33;10.07;;;9.57;;
253;SDS011;590;48.772;8.846;2023-06-10T02:20:01;10.60;;;10.00;;
253;SDS011;590;48.772;8.846;2023-06-10T02:22:30;10.27;;;9.77;;
253;SDS011;590;48.772;8.846;2023-06-10T02:24:58;11.37;;;10.77;;
253;SDS011;590;48.772;8.846;2023-06-10T02:27:26;10.83;;;10.23;;
253;SDS011;590;48.772;8.846;2023-06-10T02:29:56;10.80;;;10.20;;
253;SDS011;590;48.772;8.846;2023-06-10T02:32:24;11.07;;;10.47;;
253;SDS011;590;48.772;8.846;2023-06-10T02:34:52;10.70;;;10.10;;
253;SDS011;590;48.772;8.846;2023-06-10T02:37:20;11.50;;;10.90;;
253;SDS011;590;48.772;8.846;2023-06-10T02:39:48;10.70;;;10.10;;
253;SDS011;590;48.772;8.846;2023-06-10T02:42:16;12.00;;;11.40;;
253;SDS011;590;48.772;8.846;2023-06-10T02:44:44;12.37;;;11.77;;
253;SDS011;590;48.772;8.846;2023-06-10T02:47:13;10.53;;;9.97;;
253;SDS011;590;48.772;8.846;2023-06-10T02:49:41;10.30;;;9.80;;
253;SDS011;590;48.772;8.846;2023-06-10T02:52:09;11.20;;;10.60;;
253;SDS011;590;48.772;8.846;2023-06-10T02:54:38;11.60;;;11.00;;
253;SDS011;590;48.772;8.846;2023-06-10T02:57:07;11.47;;;10.87;;
253;SDS011;590;48.772;8.846;2023-06-10T02:59:36;10.10;;;9.60;;
253;SDS011;590;48.772;8.846;2023-06-10T03:02:05;11.63;;;11.03;;
253;SDS011;590;48.772;8.846;2023-06-10T03:04:34;11.47;;;10.87;;
253;SDS011;590;48.772;8.846;2023-06-10T03:07:04;10.80;;;10.20;;
253;SDS011;590;48.772;8.846;2023-06-10T03:09:34;11.43;;;10.83;;
253;SDS011;590;48.772;8.846;2023-06-10T03:12:02;11.10;;;10.50;;
253;SDS011;590;48.772;8.846;2023-06-10T03:14:30;10.57;;;10.00;;
253;SDS011;590;48.772;8.846;2023-06-10T03:16:58;10.93;;;10.33;;
253;SDS011;590;48.772;8.846;2023-06-10T03:19:27;12.07;;;11.47;;
253;SDS011;590;48.772;8.846;2023-06-10T03:21:57;11.50;;;10.90;;
253;SDS011;590;48.772;8.846;2023-06-10T03:24:33;11.40;;;10.80;;
253;SDS011;590;48.772;8.846;2023-06-10T03:27:03;11.33;;;10.73;;
253;SDS011;590;48.772;8.846;2023-06-10T03:29:31;11.00;;;10.40;;
253;SDS011;590;48.772;8.846;2023-06-10T03:31:59;11.53;;;10.93;;
253;SDS011;590;48.772;8.846;2023-06-10T03:34:27;10.40;;;9.90;;
253;SDS011;590;48.772;8.846;2023-06-10T03:36:57;10.70;;;10.10;;
253;SDS011;590;48.772;8.846;2023-06-10T03:39:25;10.00;;;9.50;;
253;SDS011;590;48.772;8.846;2023-06-10T03:41:55;10.47;;;9.93;;
253;SDS011;590;48.772;8.846;2023-06-10T03:44:24;10.13;;;9.63;;
253;SDS011;590;48.772;8.846;2023-06-10T03:46:53;10.13;;;9.63;;
253;SDS011;590;48.772;8.846;2023-06-10T03:49:22;10.73;;;10.13;;
253;SDS011;590;48.772;8.846;2023-06-10T03:51:52;10.57;;;10.00;;
253;SDS011;590;48.772;8.846;2023-06-10T03:54:21;11.13;;;10.53;;
253;SDS011;590;48.772;8.846;2023-06-10T03:56:49;11.43;;;10.83;;
253;SDS011;590;48.772;8.846;2023-06-10T03:59:17;10.67;;;10.10;;
253;SDS011;590;48.772;8.846;2023-06-10T04:01:45;10.63;;;10.03;;
253;SDS011;590;48.772;8.846;2023-06-10T04:04:14;10.80;;;10.20;;
253;SDS011;590;48.772;8.846;2023-06-10T04:06:43;10.60;;;10.03;;
253;SDS011;590;48.772;8.846;2023-06-10T04:09:11;11.37;;;10.77;;
253;SDS011;590;48.772;8.846;2023-06-10T04:11:41;10.60;;;10.00;;
253;SDS011;590;48.772;8.846;2023-06-10T04:14:09;10.03;;;9.53;;
253;SDS011;590;48.772;8.846;2023-06-10T04:16:37;10.00;;;9.50;;
253;SDS011;590;48.772;8.846;2023-06-10T04:19:05;11.13;;;10.53;;
253;SDS011;590;48.772;8.846;2023-06-10T04:21:33;9.80;;;9.30;;
253;SDS011;590;48.772;8.846;2023-06-10T04:24:02;9.40;;;8.90;;
253;SDS011;590;48.772;8.846;2023-06-10T04:26:31;10.10;;;9.60;;
253;SDS011;590;48.772;8.846;2023-06-10T04:29:01;9.43;;;8.93;;
253;SDS011;590;48.772;8.846;2023-06-10T04:31:29;8.97;;;8.47;;
253;SDS011;590;48.772;8.846;2023-06-10T04:33:59;9.10;;;8.60;;
253;SDS011;590;48.772;8.846;2023-06-10T04:36:27;9.30;;;8.80;;
253;SDS011;590;48.772;8.846;2023-06-10T04:38:56;8.90;;;8.40;;
253;SDS011;590;48.772;8.846;2023-06-10T04:41:24;9.67;;;9.17;;
253;SDS011;590;48.772;8.846;2023-06-10T04:43:53;7.47;;;7.07;;
253;SDS011;590;48.772;8.846;2023-06-10T04:46:22;8.97;;;8.47;;
253;SDS011;590;48.772;8.846;2023-06-10T04:48:50;9.33;;;8.83;;
253;SDS011;590;48.772;8.846;2023-06-10T04:51:21;9.80;;;9.30;;
253;SDS011;590;48.772;8.846;2023-06-10T04:53:49;8.13;;;7.73;;
253;SDS011;590;48.772;8.846;2023-06-10T04:56:17;8.90;;;8.40;;
253;SDS011;590;48.772;8.846;2023-06-10T04:58:45;8.87;;;8.37;;
253;SDS011;590;48.772;8.846;2023-06-10T05:01:13;8.60;;;8.10;;
253;SDS011;590;48.772;8.846;2023-06-10T05:03:42;8.80;;;8.30;;
253;SDS011;590;48.772;8.846;2023-06-10T05:06:10;9.00;;;8.50;;
253;SDS011;590;48.772;8.846;2023-06-10T05:08:38;9.07;;;8.57;;
253;SDS011;590;48.772;8.846;2023-06-10T05:11:06;9.70;;;9.20;;
253;SDS011;590;48.772;8.846;2023-06-10T05:13:34;8.43;;;7.97;;
253;SDS011;590;48.772;8.846;2023-06-10T05:16:03;9.13;;;8.63;;
253;SDS011;590;48.772;8.846;2023-06-10T05:18:31;8.67;;;8.17;;
253;SDS011;590;48.772;8.846;2023-06-10T05:21:00;9.27;;;8.77;;
253;SDS011;590;48.772;8.846;2023-06-10T05:23:28;9.47;;;8.97;;
253;SDS011;590;48.772;8.846;2023-06-10T05:25:57;10.30;;;9.80;;
253;SDS011;590;48.772;8.846;2023-06-10T05:28:25;9.97;;;9.47;;
253;SDS011;590;48.772;8.846;2023-06-10T05:30:53;10.10;;;9.60;;
253;SDS011;590;48.772;8.846;2023-06-10T05:33:21;10.97;;;10.37;;
253;SDS011;590;48.772;8.846;2023-06-10T05:35:49;11.47;;;10.87;;
253;SDS011;590;48.772;8.846;2023-06-10T05:38:19;11.10;;;10.50;;
253;SDS011;590;48.772;8.846;2023-06-10T05:40:47;11.10;;;10.50;;
253;SDS011;590;48.772;8.846;2023-06-10T05:43:15;10.67;;;10.07;;
253;SDS011;590;48.772;8.846;2023-06-10T05:45:43;10.90;;;10.30;;
253;SDS011;590;48.772;8.846;2023-06-10T05:48:11;11.50;;;10.90;;
253;SDS011;590;48.772;8.846;2023-06-10T05:50:39;10.17;;;9.67;;
253;SDS011;590;48.772;8.846;2023-06-10T05:53:09;10.17;;;9.67;;
253;SDS011;590;48.772;8.846;2023-06-10T05:55:43;11.17;;;10.57;;
253;SDS011;590;48.772;8.846;2023-06-10T05:58:11;10.60;;;10.00;;
253;SDS011;590;48.772;8.846;2023-06-10T06:00:40;11.03;;;10.43;;
253;SDS011;590;48.772;8.846;2023-06-10T06:03:08;10.80;;;10.20;;
253;SDS011;590;48.772;8.846;2023-06-10T06:05:37;9.73;;;9.23;;
253;SDS011;590;48.772;8.846;2023-06-10T06:08:05;8.10;;;7.70;;
253;SDS011;590;48.772;8.846;2023-06-10T06:10:33;8.83;;;8.33;;
253;SDS011;590;48.772;8.846;2023-06-10T06:13:03;7.50;;;7.10;;
253;SDS011;590;48.772;8.846;2023-06-10T06:15:31;7.70;;;7.30;;
253;SDS011;590;48.772;8.846;2023-06-10T06:17:59;7.63;;;7.23;;
253;SDS011;590;48.772;8.846;2023-06-10T06:20:27;8.77;;;8.27;;
253;SDS011;590;48.772;8.846;2023-06-10T06:22:55;5.93;;;5.63;;
253;SDS011;590;48.772;8.846;2023-06-10T06:25:23;8.30;;;7.90;;
253;SDS011;590;48.772;8.846;2023-06-10T06:27:51;7.23;;;6.83;;
253;SDS011;590;48.772;8.846;2023-06-10T06:30:20;7.00;;;6.60;;
253;SDS011;590;48.772;8.846;2023-06-10T06:32:48;6.90;;;6.50;;
253;SDS011;590;48.772;8.846;2023-06-10T06:35:18;6.13;;;5.83;;
253;SDS011;590;48.772;8.846;2023-06-10T06:37:46;7.00;;;6.60;;
253;SDS011;590;48.772;8.846;2023-06-10T06:40:14;7.37;;;6.97;;
253;SDS011;590;48.772;8.846;2023-06-10T06:42:42;6.63;;;6.23;;
253;SDS011;590;48.772;8.846;2023-06-10T06:45:10;6.87;;;6.47;;
253;SDS011;590;48.772;8.846;2023-06-10T06:47:40;6.77;;;6.37;;
253;SDS011;590;48.772;8.846;2023-06-10T06:50:08;6.63;;;6.23;;
253;SDS011;590;48.772;8.846;2023-06-10T06:52:36;6.57;;;6.17;;
253;SDS011;590;48.772;8.846;2023-06-10T06:55:05;6.57;;;6.17;;
253;SDS011;590;48.772;8.846;2023-06-10T06:57:34;6.80;;;6.40;;
253;SDS011;590;48.772;8.846;2023-06-10T07:00:03;7.00;;;6.60;;
253;SDS011;590;48.772;8.846;2023-06-10T07:02:32;6.60;;;5.90;;
253;SDS011;590;48.772;8.846;2023-06-10T07:05:01;6.53;;;6.13;;
253;SDS011;590;48.772;8.846;2023-06-10T07:07:30;6.63;;;6.23;;
253;SDS011;590;48.772;8.846;2023-06-10T07:09:58;7.57;;;7.17;;
253;SDS011;590;48.772;8.846;2023-06-10T07:12:26;7.30;;;6.90;;
253;SDS011;590;48.772;8.846;2023-06-10T07:14:54;6.63;;;6.23;;
253;SDS011;590;48.772;8.846;2023-06-10T07:17:22;7.03;;;6.63;;
253;SDS011;590;48.772;8.846;2023-06-10T07:19:50;6.00;;;5.67;;
253;SDS011;590;48.772;8.846;2023-06-10T07:22:20;5.50;;;5.20;;
253;SDS011;590;48.772;8.846;2023-06-10T07:24:48;5.57;;;5.27;;
253;SDS011;590;48.772;8.846;2023-06-10T07:27:17;5.67;;;5.37;;
253;SDS011;590;48.772;8.846;2023-06-10T07:29:45;6.90;;;6.50;;
253;SDS011;590;48.772;8.846;2023-06-10T07:32:13;6.07;;;5.77;;
253;SDS011;590;48.772;8.846;2023-06-10T07:34:44;5.17;;;4.87;;
253;SDS011;590;48.772;8.846;2023-06-10T07:37:12;5.53;;;5.23;;
253;SDS011;590;48.772;8.846;2023-06-10T07:39:42;5.30;;;5.00;;
253;SDS011;590;48.772;8.846;2023-06-10T07:42:11;4.90;;;4.60;;
253;SDS011;590;48.772;8.846;2023-06-10T07:44:50;5.50;;;5.20;;
253;SDS011;590;48.772;8.846;2023-06-10T07:47:18;5.57;;;5.27;;
253;SDS011;590;48.772;8.846;2023-06-10T07:49:46;5.63;;;5.33;;
253;SDS011;590;48.772;8.846;2023-06-10T07:52:14;5.70;;;5.40;;
253;SDS011;590;48.772;8.846;2023-06-10T07:54:44;5.60;;;5.30;;
253;SDS011;590;48.772;8.846;2023-06-10T07:57:12;5.17;;;4.87;;
253;SDS011;590;48.772;8.846;2023-06-10T07:59:40;5.27;;;4.97;;
253;SDS011;590;48.772;8.846;2023-06-10T08:02:10;5.33;;;5.03;;
253;SDS011;590;48.772;8.846;2023-06-10T08:04:38;5.43;;;5.13;;
253;SDS011;590;48.772;8.846;2023-06-10T08:07:06;5.93;;;5.63;;
253;SDS011;590;48.772;8.846;2023-06-10T08:09:34;5.80;;;5.50;;
253;SDS011;590;48.772;8.846;2023-06-10T08:12:05;6.07;;;5.77;;
253;SDS011;590;48.772;8.846;2023-06-10T08:14:34;5.23;;;4.93;;
253;SDS011;590;48.772;8.846;2023-06-10T08:17:03;5.93;;;5.63;;
253;SDS011;590;48.772;8.846;2023-06-10T08:19:32;6.43;;;6.03;;
253;SDS011;590;48.772;8.846;2023-06-10T08:22:00;5.60;;;5.30;;
253;SDS011;590;48.772;8.846;2023-06-10T08:24:28;6.67;;;6.27;;
253;SDS011;590;48.772;8.846;2023-06-10T08:26:56;5.60;;;5.30;;
253;SDS011;590;48.772;8.846;2023-06-10T08:29:25;5.30;;;5.00;;
253;SDS011;590;48.772;8.846;2023-06-10T08:31:53;5.60;;;5.30;;
253;SDS011;590;48.772;8.846;2023-06-10T08:34:21;6.00;;;5.70;;
253;SDS011;590;48.772;8.846;2023-06-10T08:36:49;6.90;;;6.50;;
253;SDS011;590;48.772;8.846;2023-06-10T08:39:19;6.53;;;6.13;;
253;SDS011;590;48.772;8.846;2023-06-10T08:41:48;6.63;;;6.23;;
253;SDS011;590;48.772;8.846;2023-06-10T08:44:28;6.53;;;6.13;;
253;SDS011;590;48.772;8.846;2023-06-10T08:46:59;7.87;;;7.47;;
253;SDS011;590;48.772;8.846;2023-06-10T08:49:29;7.53;;;7.13;;
253;SDS011;590;48.772;8.846;2023-06-10T08:52:02;7.93;;;7.53;;
253;SDS011;590;48.772;8.846;2023-06-10T08:54:31;7.17;;;6.77;;
253;SDS011;590;48.772;8.846;2023-06-10T08:57:02;6.57;;;6.17;;
253;SDS011;590;48.772;8.846;2023-06-10T08:59:34;6.33;;;5.97;;
253;SDS011;590;48.772;8.846;2023-06-10T09:02:04;6.97;;;6.57;;
253;SDS011;590;48.772;8.846;2023-06-10T09:04:32;7.30;;;6.90;;
253;SDS011;590;48.772;8.846;2023-06-10T09:07:01;6.60;;;6.20;;
253;SDS011;590;48.772;8.846;2023-06-10T09:09:31;6.47;;;6.07;;
253;SDS011;590;48.772;8.846;2023-06-10T09:12:02;6.90;;;6.50;;
253;SDS011;590;48.772;8.846;2023-06-10T09:14:30;6.03;;;5.73;;
253;SDS011;590;48.772;8.846;2023-06-10T09:17:00;5.83;;;5.53;;
253;SDS011;590;48.772;8.846;2023-06-10T09:19:28;5.90;;;5.60;;
253;SDS011;590;48.772;8.846;2023-06-10T09:21:57;6.80;;;6.40;;
253;SDS011;590;48.772;8.846;2023-06-10T09:24:27;5.97;;;5.67;;
253;SDS011;590;48.772;8.846;2023-06-10T09:27:01;6.00;;;5.70;;
253;SDS011;590;48.772;8.846;2023-06-10T09:29:30;6.20;;;5.90;;
253;SDS011;590;48.772;8.846;2023-06-10T09:31:59;6.63;;;6.23;;
253;SDS011;590;48.772;8.846;2023-06-10T09:34:28;6.03;;;5.73;;
253;SDS011;590;48.772;8.846;2023-06-10T09:36:56;6.10;;;5.80;;
253;SDS011;590;48.772;8.846;2023-06-10T09:39:25;5.70;;;5.40;;
253;SDS011;590;48.772;8.846;2023-06-10T09:41:53;6.23;;;5.90;;
253;SDS011;590;48.772;8.846;2023-06-10T09:44:21;6.70;;;6.30;;
253;SDS011;590;48.772;8.846;2023-06-10T09:46:50;6.53;;;6.13;;
253;SDS011;590;48.772;8.846;2023-06-10T09:49:22;5.97;;;5.67;;
253;SDS011;590;48.772;8.846;2023-06-10T09:51:50;6.80;;;6.40;;
253;SDS011;590;48.772;8.846;2023-06-10T09:54:19;6.97;;;6.57;;
253;SDS011;590;48.772;8.846;2023-06-10T09:56:48;6.03;;;5.73;;
253;SDS011;590;48.772;8.846;2023-06-10T09:59:27;6.63;;;6.23;;
253;SDS011;590;48.772;8.846;2023-06-10T10:01:56;7.10;;;6.70;;
253;SDS011;590;48.772;8.846;2023-06-10T10:04:25;6.50;;;6.10;;
253;SDS011;590;48.772;8.846;2023-06-10T10:06:55;6.60;;;6.20;;
253;SDS011;590;48.772;8.846;2023-06-10T10:09:25;6.57;;;6.17;;
253;SDS011;590;48.772;8.846;2023-06-10T10:11:53;7.00;;;6.60;;
253;SDS011;590;48.772;8.846;2023-06-10T10:14:23;6.50;;;6.10;;
253;SDS011;590;48.772;8.846;2023-06-10T10:16:52;6.50;;;6.10;;
253;SDS011;590;48.772;8.846;2023-06-10T10:19:23;6.70;;;6.30;;
253;SDS011;590;48.772;8.846;2023-06-10T10:21:56;6.63;;;6.23;;
253;SDS011;590;48.772;8.846;2023-06-10T10:24:30;6.90;;;6.50;;
253;SDS011;590;48.772;8.846;2023-06-10T10:27:01;6.67;;;6.27;;
253;SDS011;590;48.772;8.846;2023-06-10T10:29:37;6.90;;;6.50;;
253;SDS011;590;48.772;8.846;2023-06-10T10:32:06;6.67;;;6.27;;
253;SDS011;590;48.772;8.846;2023-06-10T10:34:40;6.40;;;6.00;;
253;SDS011;590;48.772;8.846;2023-06-10T10:37:19;6.90;;;6.50;;
253;SDS011;590;48.772;8.846;2023-06-10T10:39:48;6.17;;;5.87;;
253;SDS011;590;48.772;8.846;2023-06-10T10:42:17;6.70;;;6.30;;
253;SDS011;590;48.772;8.846;2023-06-10T10:44:50;6.60;;;6.20;;
253;SDS011;590;48.772;8.846;2023-06-10T10:47:19;6.73;;;6.33;;
253;SDS011;590;48.772;8.846;2023-06-10T10:49:51;6.43;;;6.03;;
253;SDS011;590;48.772;8.846;2023-06-10T10:52:20;6.60;;;6.20;;
253;SDS011;590;48.772;8.846;2023-06-10T10:54:48;5.83;;;5.53;;
253;SDS011;590;48.772;8.846;2023-06-10T10:57:17;6.70;;;6.30;;
253;SDS011;590;48.772;8.846;2023-06-10T10:59:51;6.67;;;6.27;;
253;SDS011;590;48.772;8.846;2023-06-10T11:02:33;7.70;;;7.30;;
253;SDS011;590;48.772;8.846;2023-06-10T11:05:07;7.07;;;6.67;;
253;SDS011;590;48.772;8.846;2023-06-10T11:07:37;6.70;;;6.30;;
253;SDS011;590;48.772;8.846;2023-06-10T11:10:06;7.20;;;6.80;;
253;SDS011;590;48.772;8.846;2023-06-10T11:12:42;6.93;;;6.53;;
253;SDS011;590;48.772;8.846;2023-06-10T11:15:18;6.20;;;5.90;;
253;SDS011;590;48.772;8.846;2023-06-10T11:18:06;6.70;;;6.30;;
253;SDS011;590;48.772;8.846;2023-06-10T11:20:55;6.80;;;6.40;;
253;SDS011;590;48.772;8.846;2023-06-10T11:23:35;6.80;;;6.40;;
253;SDS011;590;48.772;8.846;2023-06-10T11:26:12;6.70;;;6.30;;
253;SDS011;590;48.772;8.846;2023-06-10T11:29:02;7.00;;;6.60;;
253;SDS011;590;48.772;8.846;2023-06-10T11:31:32;6.23;;;5.90;;
253;SDS011;590;48.772;8.846;2023-06-10T11:34:01;6.87;;;6.47;;
253;SDS011;590;48.772;8.846;2023-06-10T11:36:32;6.60;;;6.20;;
253;SDS011;590;48.772;8.846;2023-06-10T11:39:03;7.37;;;6.97;;
253;SDS011;590;48.772;8.846;2023-06-10T11:41:32;6.73;;;6.33;;
253;SDS011;590;48.772;8.846;2023-06-10T11:44:02;7.10;;;6.70;;
253;SDS011;590;48.772;8.846;2023-06-10T11:46:31;6.93;;;6.53;;
253;SDS011;590;48.772;8.846;2023-06-10T11:49:01;6.50;;;6.10;;
253;SDS011;590;48.772;8.846;2023-06-10T11:51:33;6.10;;;5.80;;
253;SDS011;590;48.772;8.846;2023-06-10T11:54:03;5.90;;;5.60;;
253;SDS011;590;48.772;8.846;2023-06-10T11:56:32;5.93;;;5.63;;
253;SDS011;590;48.772;8.846;2023-06-10T11:59:00;6.40;;;6.00;;
253;SDS011;590;48.772;8.846;2023-06-10T12:01:31;5.93;;;5.63;;
253;SDS011;590;48.772;8.846;2023-06-10T12:04:01;6.17;;;5.87;;
253;SDS011;590;48.772;8.846;2023-06-10T12:06:41;6.67;;;6.27;;
253;SDS011;590;48.772;8.846;2023-06-10T12:09:14;5.87;;;5.57;;
253;SDS011;590;48.772;8.846;2023-06-10T12:11:53;5.77;;;5.47;;
253;SDS011;590;48.772;8.846;2023-06-10T12:17:23;6.10;;;5.80;;
253;SDS011;590;48.772;8.846;2023-06-10T12:20:04;6.50;;;6.10;;
253;SDS011;590;48.772;8.846;2023-06-10T12:22:38;5.70;;;5.40;;
253;SDS011;590;48.772;8.846;2023-06-10T12:25:07;6.53;;;6.13;;
253;SDS011;590;48.772;8.846;2023-06-10T12:27:38;5.80;;;5.50;;
253;SDS011;590;48.772;8.846;2023-06-10T12:30:07;5.97;;;5.67;;
253;SDS011;590;48.772;8.846;2023-06-10T12:32:40;5.67;;;5.37;;
253;SDS011;590;48.772;8.846;2023-06-10T12:35:09;5.80;;;5.50;;
253;SDS011;590;48.772;8.846;2023-06-10T12:37:41;6.80;;;6.40;;
253;SDS011;590;48.772;8.846;2023-06-10T12:40:09;6.60;;;6.20;;
253;SDS011;590;48.772;8.846;2023-06-10T12:42:38;6.10;;;5.80;;
253;SDS011;590;48.772;8.846;2023-06-10T12:45:08;6.03;;;5.73;;
253;SDS011;590;48.772;8.846;2023-06-10T12:47:39;5.67;;;5.37;;
253;SDS011;590;48.772;8.846;2023-06-10T12:50:08;6.90;;;6.50;;
253;SDS011;590;48.772;8.846;2023-06-10T12:52:38;5.60;;;5.30;;
253;SDS011;590;48.772;8.846;2023-06-10T12:55:08;7.70;;;6.60;;
253;SDS011;590;48.772;8.846;2023-06-10T12:57:37;5.60;;;5.30;;
253;SDS011;590;48.772;8.846;2023-06-10T13:00:15;6.80;;;6.40;;
253;SDS011;590;48.772;8.846;2023-06-10T13:02:46;5.80;;;5.50;;
253;SDS011;590;48.772;8.846;2023-06-10T13:05:15;6.00;;;5.70;;
253;SDS011;590;48.772;8.846;2023-06-10T13:07:45;5.97;;;5.67;;
253;SDS011;590;48.772;8.846;2023-06-10T13:10:14;5.57;;;5.27;;
253;SDS011;590;48.772;8.846;2023-06-10T13:12:43;6.70;;;6.30;;
253;SDS011;590;48.772;8.846;2023-06-10T13:15:14;6.27;;;5.93;;
253;SDS011;590;48.772;8.846;2023-06-10T13:17:42;6.20;;;5.90;;
253;SDS011;590;48.772;8.846;2023-06-10T13:20:12;6.70;;;5.90;;
253;SDS011;590;48.772;8.846;2023-06-10T13:22:40;6.10;;;5.80;;
253;SDS011;590;48.772;8.846;2023-06-10T13:25:10;5.70;;;5.40;;
253;SDS011;590;48.772;8.846;2023-06-10T13:27:39;6.10;;;5.80;;
253;SDS011;590;48.772;8.846;2023-06-10T13:30:08;6.13;;;5.83;;
253;SDS011;590;48.772;8.846;2023-06-10T13:32:38;5.10;;;4.80;;
253;SDS011;590;48.772;8.846;2023-06-10T13:35:06;5.80;;;5.50;;
253;SDS011;590;48.772;8.846;2023-06-10T13:37:35;5.03;;;4.73;;
253;SDS011;590;48.772;8.846;2023-06-10T13:40:04;5.77;;;5.47;;
253;SDS011;590;48.772;8.846;2023-06-10T13:42:35;5.30;;;5.00;;
253;SDS011;590;48.772;8.846;2023-06-10T13:45:04;7.17;;;5.80;;
253;SDS011;590;48.772;8.846;2023-06-10T13:47:33;5.67;;;5.37;;
253;SDS011;590;48.772;8.846;2023-06-10T13:50:01;6.03;;;5.73;;
253;SDS011;590;48.772;8.846;2023-06-10T13:52:29;5.33;;;5.03;;
253;SDS011;590;48.772;8.846;2023-06-10T13:54:57;4.67;;;4.37;;
253;SDS011;590;48.772;8.846;2023-06-10T13:57:25;5.67;;;5.37;;
253;SDS011;590;48.772;8.846;2023-06-10T13:59:54;5.73;;;5.43;;
253;SDS011;590;48.772;8.846;2023-06-10T14:02:22;5.60;;;5.30;;
253;SDS011;590;48.772;8.846;2023-06-10T14:04:50;5.33;;;5.03;;
253;SDS011;590;48.772;8.846;2023-06-10T14:07:18;5.83;;;5.53;;
253;SDS011;590;48.772;8.846;2023-06-10T14:09:46;5.90;;;5.60;;
253;SDS011;590;48.772;8.846;2023-06-10T14:12:14;7.33;;;5.60;;
253;SDS011;590;48.772;8.846;2023-06-10T14:14:42;5.60;;;5.30;;
253;SDS011;590;48.772;8.846;2023-06-10T14:17:12;5.63;;;5.33;;
253;SDS011;590;48.772;8.846;2023-06-10T14:19:40;5.83;;;5.53;;
253;SDS011;590;48.772;8.846;2023-06-10T14:22:08;6.10;;;5.80;;
253;SDS011;590;48.772;8.846;2023-06-10T14:24:36;5.30;;;5.00;;
253;SDS011;590;48.772;8.846;2023-06-10T14:27:04;5.10;;;4.80;;
253;SDS011;590;48.772;8.846;2023-06-10T14:29:33;4.97;;;4.70;;
253;SDS011;590;48.772;8.846;2023-06-10T14:32:01;5.30;;;5.00;;
253;SDS011;590;48.772;8.846;2023-06-10T14:34:36;5.43;;;5.13;;
253;SDS011;590;48.772;8.846;2023-06-10T14:37:05;5.40;;;5.10;;
253;SDS011;590;48.772;8.846;2023-06-10T14:39:34;5.13;;;4.83;;
253;SDS011;590;48.772;8.846;2023-06-10T14:42:02;5.20;;;4.90;;
253;SDS011;590;48.772;8.846;2023-06-10T14:44:32;4.83;;;4.53;;
253;SDS011;590;48.772;8.846;2023-06-10T14:47:00;5.30;;;4.87;;
253;SDS011;590;48.772;8.846;2023-06-10T14:49:27;5.17;;;4.87;;
253;SDS011;590;48.772;8.846;2023-06-10T14:51:57;5.10;;;4.80;;
253;SDS011;590;48.772;8.846;2023-06-10T14:54:25;4.90;;;4.60;;
253;SDS011;590;48.772;8.846;2023-06-10T14:56:54;5.30;;;5.00;;
253;SDS011;590;48.772;8.846;2023-06-10T14:59:22;5.43;;;5.13;;
253;SDS011;590;48.772;8.846;2023-06-10T15:01:50;5.60;;;5.30;;
253;SDS011;590;48.772;8.846;2023-06-10T15:04:18;5.30;;;5.00;;
253;SDS011;590;48.772;8.846;2023-06-10T15:06:49;4.73;;;4.43;;
253;SDS011;590;48.772;8.846;2023-06-10T15:09:19;5.60;;;5.30;;
253;SDS011;590;48.772;8.846;2023-06-10T15:11:47;5.40;;;5.10;;
253;SDS011;590;48.772;8.846;2023-06-10T15:14:15;5.77;;;5.47;;
253;SDS011;590;48.772;8.846;2023-06-10T15:16:43;4.90;;;4.60;;
253;SDS011;590;48.772;8.846;2023-06-10T15:19:11;5.63;;;5.33;;
253;SDS011;590;48.772;8.846;2023-06-10T15:21:39;5.00;;;4.70;;
253;SDS011;590;48.772;8.846;2023-06-10T15:24:07;5.53;;;5.23;;
253;SDS011;590;48.772;8.846;2023-06-10T15:26:37;5.60;;;5.30;;
253;SDS011;590;48.772;8.846;2023-06-10T15:29:05;5.77;;;5.47;;
253;SDS011;590;48.772;8.846;2023-06-10T15:31:33;4.87;;;4.57;;
253;SDS011;590;48.772;8.846;2023-06-10T15:34:01;5.23;;;4.93;;
253;SDS011;590;48.772;8.846;2023-06-10T15:36:30;5.27;;;4.97;;
253;SDS011;590;48.772;8.846;2023-06-10T15:38:59;5.80;;;5.50;;
253;SDS011;590;48.772;8.846;2023-06-10T15:41:29;6.03;;;5.73;;
253;SDS011;590;48.772;8.846;2023-06-10T15:43:58;5.47;;;5.17;;
253;SDS011;590;48.772;8.846;2023-06-10T15:46:27;5.43;;;5.13;;
253;SDS011;590;48.772;8.846;2023-06-10T15:48:56;6.10;;;5.80;;
253;SDS011;590;48.772;8.846;2023-06-10T15:51:25;5.33;;;5.03;;
253;SDS011;590;48.772;8.846;2023-06-10T15:53:53;6.27;;;5.93;;